Huvudsida
METAR-TAF:

METAR-TAF

Flygplatser :

Foz do Iguaçu / Cataratas International Airport

Foz do Iguaçu, Paraná, Brasilien

latitud: 25-31S, longitud: 054-35W, höjd: 180 m

Aktuellt väderrapport

Denna rapport gjordes för 27 minuter sedan, klockan 05:00 UTC
Vind 2 kt från sydost
Temperatur 16°C
Fuktighet 94%
Tryck 1012 hPa
Sikt 10 km eller mer
Inga moln under 1 500 m eller inga cumulonimbus

METAR: SBFI 240500Z 14002KT CAVOK 16/15 Q1012

Tid: 03:27 (05:27 UTC)

Väderprognos

Denna rapport gjordes för 6 timmar och 57 minuter sedan, klockan 22:30 UTC
Prognos gäller från 24 kl. 00 UTC till 24 kl. 24 UTC
Vind 6 kt från syd
Sikt 10 km eller mer
Inga moln under 1 500 m eller inga cumulonimbus
Sannolikhet 30%
från 24 kl. 09 UTC till 24 kl. 11 UTC
Sikt: 2000 m
fuktdis

TAF: SBFI 232230Z 2400/2424 19006KT CAVOK TN17/2408Z TX32/2417Z PROB30 2409/2411 2000 BR NSC RMK PEB

Aktuella väderrapporter och prognoser från 4000 flygplatser (METAR- och TAF-rapporter).

De tillgängliga stationerna syns som gula och röda prickar på kartan.

För musen över prickarna för att se namnen på stationerna.

Klicka sedan för att få väderrapporter och prognoser.

För att ändra kartan: Klicka på de gröna knapparna med ett svart kors på för att zooma in; den gröna knappen med ett streck på för att zooma ut; eller på de gröna pilarna för angränsande kartor.


METAR-TAF: